sensor_id;sensor_type;location;lat;lon;timestamp;P1;durP1;ratioP1;P2;durP2;ratioP2
74957;SDS011;63741;42.624;26.276;2023-12-04T00:02:01;0.80;;;0.60;;
74957;SDS011;63741;42.624;26.276;2023-12-04T00:04:28;1.73;;;0.85;;
74957;SDS011;63741;42.624;26.276;2023-12-04T00:06:56;1.20;;;0.70;;
74957;SDS011;63741;42.624;26.276;2023-12-04T00:09:23;0.88;;;0.60;;
74957;SDS011;63741;42.624;26.276;2023-12-04T00:11:51;1.60;;;0.80;;
74957;SDS011;63741;42.624;26.276;2023-12-04T00:14:19;1.17;;;0.68;;
74957;SDS011;63741;42.624;26.276;2023-12-04T00:16:46;1.10;;;0.60;;
74957;SDS011;63741;42.624;26.276;2023-12-04T00:19:13;0.90;;;0.60;;
74957;SDS011;63741;42.624;26.276;2023-12-04T00:21:40;1.52;;;0.50;;
74957;SDS011;63741;42.624;26.276;2023-12-04T00:24:07;0.70;;;0.40;;
74957;SDS011;63741;42.624;26.276;2023-12-04T00:26:34;0.85;;;0.47;;
74957;SDS011;63741;42.624;26.276;2023-12-04T00:29:01;1.33;;;0.50;;
74957;SDS011;63741;42.624;26.276;2023-12-04T00:31:28;1.58;;;0.60;;
74957;SDS011;63741;42.624;26.276;2023-12-04T00:33:55;0.52;;;0.40;;
74957;SDS011;63741;42.624;26.276;2023-12-04T00:36:22;0.73;;;0.43;;
74957;SDS011;63741;42.624;26.276;2023-12-04T00:38:49;0.90;;;0.57;;
74957;SDS011;63741;42.624;26.276;2023-12-04T00:41:16;1.15;;;0.70;;
74957;SDS011;63741;42.624;26.276;2023-12-04T00:43:43;1.00;;;0.60;;
74957;SDS011;63741;42.624;26.276;2023-12-04T00:46:10;1.92;;;0.80;;
74957;SDS011;63741;42.624;26.276;2023-12-04T00:48:37;1.30;;;0.73;;
74957;SDS011;63741;42.624;26.276;2023-12-04T00:51:04;1.92;;;0.90;;
74957;SDS011;63741;42.624;26.276;2023-12-04T00:53:32;1.80;;;0.70;;
74957;SDS011;63741;42.624;26.276;2023-12-04T00:55:59;1.40;;;0.80;;
74957;SDS011;63741;42.624;26.276;2023-12-04T00:58:25;1.52;;;0.80;;
74957;SDS011;63741;42.624;26.276;2023-12-04T01:00:53;1.90;;;0.98;;
74957;SDS011;63741;42.624;26.276;2023-12-04T01:03:20;2.92;;;1.00;;
74957;SDS011;63741;42.624;26.276;2023-12-04T01:05:46;1.67;;;1.00;;
74957;SDS011;63741;42.624;26.276;2023-12-04T01:08:13;1.58;;;0.90;;
74957;SDS011;63741;42.624;26.276;2023-12-04T01:10:40;1.95;;;1.00;;
74957;SDS011;63741;42.624;26.276;2023-12-04T01:13:07;1.52;;;0.90;;
74957;SDS011;63741;42.624;26.276;2023-12-04T01:15:34;1.90;;;1.10;;
74957;SDS011;63741;42.624;26.276;2023-12-04T01:18:03;5.22;;;1.20;;
74957;SDS011;63741;42.624;26.276;2023-12-04T01:20:30;1.90;;;1.10;;
74957;SDS011;63741;42.624;26.276;2023-12-04T01:22:59;2.00;;;1.05;;
74957;SDS011;63741;42.624;26.276;2023-12-04T01:25:26;2.80;;;1.40;;
74957;SDS011;63741;42.624;26.276;2023-12-04T01:27:53;2.13;;;1.20;;
74957;SDS011;63741;42.624;26.276;2023-12-04T01:30:20;2.33;;;1.50;;
74957;SDS011;63741;42.624;26.276;2023-12-04T01:32:47;2.45;;;1.50;;
74957;SDS011;63741;42.624;26.276;2023-12-04T01:35:14;3.17;;;1.55;;
74957;SDS011;63741;42.624;26.276;2023-12-04T01:37:42;3.00;;;1.90;;
74957;SDS011;63741;42.624;26.276;2023-12-04T01:40:09;3.58;;;1.92;;
74957;SDS011;63741;42.624;26.276;2023-12-04T01:42:36;3.22;;;1.90;;
74957;SDS011;63741;42.624;26.276;2023-12-04T01:45:04;4.15;;;1.88;;
74957;SDS011;63741;42.624;26.276;2023-12-04T01:47:32;2.53;;;1.60;;
74957;SDS011;63741;42.624;26.276;2023-12-04T01:49:59;3.63;;;2.13;;
74957;SDS011;63741;42.624;26.276;2023-12-04T01:52:27;3.53;;;1.90;;
74957;SDS011;63741;42.624;26.276;2023-12-04T01:54:54;4.65;;;1.83;;
74957;SDS011;63741;42.624;26.276;2023-12-04T01:57:21;3.38;;;2.08;;
74957;SDS011;63741;42.624;26.276;2023-12-04T01:59:48;3.50;;;2.00;;
74957;SDS011;63741;42.624;26.276;2023-12-04T02:02:15;4.75;;;2.10;;
74957;SDS011;63741;42.624;26.276;2023-12-04T02:04:44;4.10;;;2.10;;
74957;SDS011;63741;42.624;26.276;2023-12-04T02:07:11;3.08;;;1.92;;
74957;SDS011;63741;42.624;26.276;2023-12-04T02:09:38;4.43;;;2.00;;
74957;SDS011;63741;42.624;26.276;2023-12-04T02:12:05;3.72;;;2.20;;
74957;SDS011;63741;42.624;26.276;2023-12-04T02:14:32;3.67;;;2.17;;
74957;SDS011;63741;42.624;26.276;2023-12-04T02:17:00;3.78;;;2.10;;
74957;SDS011;63741;42.624;26.276;2023-12-04T02:19:31;3.95;;;2.20;;
74957;SDS011;63741;42.624;26.276;2023-12-04T02:21:58;4.78;;;2.45;;
74957;SDS011;63741;42.624;26.276;2023-12-04T02:24:25;3.17;;;2.00;;
74957;SDS011;63741;42.624;26.276;2023-12-04T02:26:54;3.58;;;2.20;;
74957;SDS011;63741;42.624;26.276;2023-12-04T02:30:07;3.20;;;2.10;;
74957;SDS011;63741;42.624;26.276;2023-12-04T02:32:19;3.63;;;1.92;;
74957;SDS011;63741;42.624;26.276;2023-12-04T02:34:50;3.22;;;2.10;;
74957;SDS011;63741;42.624;26.276;2023-12-04T02:37:20;3.75;;;2.20;;
74957;SDS011;63741;42.624;26.276;2023-12-04T02:39:49;3.88;;;1.90;;
74957;SDS011;63741;42.624;26.276;2023-12-04T02:44:51;3.28;;;1.67;;
74957;SDS011;63741;42.624;26.276;2023-12-04T02:47:18;2.92;;;1.80;;
74957;SDS011;63741;42.624;26.276;2023-12-04T02:49:46;3.40;;;2.10;;
74957;SDS011;63741;42.624;26.276;2023-12-04T02:52:13;3.50;;;2.13;;
74957;SDS011;63741;42.624;26.276;2023-12-04T02:54:40;3.50;;;1.80;;
74957;SDS011;63741;42.624;26.276;2023-12-04T02:57:07;3.47;;;2.10;;
74957;SDS011;63741;42.624;26.276;2023-12-04T02:59:34;3.55;;;1.95;;
74957;SDS011;63741;42.624;26.276;2023-12-04T03:02:01;3.05;;;1.77;;
74957;SDS011;63741;42.624;26.276;2023-12-04T03:04:28;3.53;;;2.15;;
74957;SDS011;63741;42.624;26.276;2023-12-04T03:06:56;3.20;;;1.90;;
74957;SDS011;63741;42.624;26.276;2023-12-04T03:09:23;2.97;;;2.20;;
74957;SDS011;63741;42.624;26.276;2023-12-04T03:12:10;4.32;;;1.98;;
74957;SDS011;63741;42.624;26.276;2023-12-04T03:14:38;3.33;;;2.13;;
74957;SDS011;63741;42.624;26.276;2023-12-04T03:17:04;4.15;;;2.60;;
74957;SDS011;63741;42.624;26.276;2023-12-04T03:19:31;3.40;;;2.30;;
74957;SDS011;63741;42.624;26.276;2023-12-04T03:21:59;3.33;;;2.20;;
74957;SDS011;63741;42.624;26.276;2023-12-04T03:24:26;4.00;;;2.38;;
74957;SDS011;63741;42.624;26.276;2023-12-04T03:26:54;3.83;;;2.22;;
74957;SDS011;63741;42.624;26.276;2023-12-04T03:29:21;4.50;;;2.25;;
74957;SDS011;63741;42.624;26.276;2023-12-04T03:31:48;3.80;;;2.10;;
74957;SDS011;63741;42.624;26.276;2023-12-04T03:34:15;4.00;;;2.70;;
74957;SDS011;63741;42.624;26.276;2023-12-04T03:36:42;4.07;;;2.20;;
74957;SDS011;63741;42.624;26.276;2023-12-04T03:39:09;4.80;;;2.70;;
74957;SDS011;63741;42.624;26.276;2023-12-04T03:41:36;3.53;;;2.17;;
74957;SDS011;63741;42.624;26.276;2023-12-04T03:44:03;3.10;;;2.17;;
74957;SDS011;63741;42.624;26.276;2023-12-04T03:46:30;4.50;;;2.10;;
74957;SDS011;63741;42.624;26.276;2023-12-04T03:48:57;3.47;;;2.03;;
74957;SDS011;63741;42.624;26.276;2023-12-04T03:51:25;3.88;;;2.40;;
74957;SDS011;63741;42.624;26.276;2023-12-04T03:53:51;3.17;;;2.00;;
74957;SDS011;63741;42.624;26.276;2023-12-04T03:56:19;4.55;;;2.10;;
74957;SDS011;63741;42.624;26.276;2023-12-04T03:58:45;3.53;;;2.00;;
74957;SDS011;63741;42.624;26.276;2023-12-04T04:01:13;3.88;;;2.08;;
74957;SDS011;63741;42.624;26.276;2023-12-04T04:03:40;4.82;;;2.28;;
74957;SDS011;63741;42.624;26.276;2023-12-04T04:06:07;3.60;;;2.10;;
74957;SDS011;63741;42.624;26.276;2023-12-04T04:08:34;3.88;;;2.28;;
74957;SDS011;63741;42.624;26.276;2023-12-04T04:11:01;3.80;;;2.15;;
74957;SDS011;63741;42.624;26.276;2023-12-04T04:13:28;4.00;;;2.10;;
74957;SDS011;63741;42.624;26.276;2023-12-04T04:15:55;4.35;;;2.40;;
74957;SDS011;63741;42.624;26.276;2023-12-04T04:18:22;4.47;;;2.58;;
74957;SDS011;63741;42.624;26.276;2023-12-04T04:20:50;3.42;;;2.10;;
74957;SDS011;63741;42.624;26.276;2023-12-04T04:23:17;18.70;;;8.40;;
74957;SDS011;63741;42.624;26.276;2023-12-04T04:25:44;8.80;;;3.83;;
74957;SDS011;63741;42.624;26.276;2023-12-04T04:28:11;8.48;;;4.70;;
74957;SDS011;63741;42.624;26.276;2023-12-04T04:30:38;6.85;;;3.65;;
74957;SDS011;63741;42.624;26.276;2023-12-04T04:33:06;4.05;;;2.55;;
74957;SDS011;63741;42.624;26.276;2023-12-04T04:35:33;3.50;;;2.28;;
74957;SDS011;63741;42.624;26.276;2023-12-04T04:38:00;4.20;;;2.30;;
74957;SDS011;63741;42.624;26.276;2023-12-04T04:40:27;3.58;;;2.35;;
74957;SDS011;63741;42.624;26.276;2023-12-04T04:42:54;3.90;;;2.33;;
74957;SDS011;63741;42.624;26.276;2023-12-04T04:45:21;4.85;;;2.50;;
74957;SDS011;63741;42.624;26.276;2023-12-04T04:47:48;6.07;;;2.40;;
74957;SDS011;63741;42.624;26.276;2023-12-04T04:50:15;4.50;;;2.47;;
74957;SDS011;63741;42.624;26.276;2023-12-04T04:52:42;5.35;;;2.85;;
74957;SDS011;63741;42.624;26.276;2023-12-04T04:55:09;5.97;;;2.80;;
74957;SDS011;63741;42.624;26.276;2023-12-04T04:57:56;4.55;;;2.80;;
74957;SDS011;63741;42.624;26.276;2023-12-04T05:00:24;3.92;;;1.88;;
74957;SDS011;63741;42.624;26.276;2023-12-04T05:02:51;3.42;;;2.00;;
74957;SDS011;63741;42.624;26.276;2023-12-04T05:05:18;3.85;;;2.40;;
74957;SDS011;63741;42.624;26.276;2023-12-04T05:07:45;4.40;;;2.50;;
74957;SDS011;63741;42.624;26.276;2023-12-04T05:10:12;4.70;;;2.10;;
74957;SDS011;63741;42.624;26.276;2023-12-04T05:12:39;3.75;;;2.00;;
74957;SDS011;63741;42.624;26.276;2023-12-04T05:15:06;5.28;;;2.50;;
74957;SDS011;63741;42.624;26.276;2023-12-04T05:17:33;6.03;;;3.60;;
74957;SDS011;63741;42.624;26.276;2023-12-04T05:20:01;6.47;;;3.22;;
74957;SDS011;63741;42.624;26.276;2023-12-04T05:22:28;4.97;;;2.60;;
74957;SDS011;63741;42.624;26.276;2023-12-04T05:24:55;5.25;;;2.70;;
74957;SDS011;63741;42.624;26.276;2023-12-04T05:27:22;5.97;;;2.70;;
74957;SDS011;63741;42.624;26.276;2023-12-04T05:29:49;4.70;;;2.60;;
74957;SDS011;63741;42.624;26.276;2023-12-04T05:32:16;5.13;;;2.95;;
74957;SDS011;63741;42.624;26.276;2023-12-04T05:34:43;4.43;;;3.00;;
74957;SDS011;63741;42.624;26.276;2023-12-04T05:37:10;3.28;;;2.33;;
74957;SDS011;63741;42.624;26.276;2023-12-04T05:39:37;5.38;;;2.60;;
74957;SDS011;63741;42.624;26.276;2023-12-04T05:42:04;4.75;;;2.67;;
74957;SDS011;63741;42.624;26.276;2023-12-04T05:44:31;6.25;;;4.00;;
74957;SDS011;63741;42.624;26.276;2023-12-04T05:46:58;23.13;;;12.18;;
74957;SDS011;63741;42.624;26.276;2023-12-04T05:49:25;8.18;;;4.53;;
74957;SDS011;63741;42.624;26.276;2023-12-04T05:51:52;5.38;;;3.20;;
74957;SDS011;63741;42.624;26.276;2023-12-04T05:54:19;5.53;;;3.40;;
74957;SDS011;63741;42.624;26.276;2023-12-04T05:56:46;7.93;;;4.25;;
74957;SDS011;63741;42.624;26.276;2023-12-04T05:59:13;9.23;;;4.20;;
74957;SDS011;63741;42.624;26.276;2023-12-04T06:01:40;7.53;;;3.95;;
74957;SDS011;63741;42.624;26.276;2023-12-04T06:04:08;8.27;;;5.05;;
74957;SDS011;63741;42.624;26.276;2023-12-04T06:06:35;7.53;;;4.93;;
74957;SDS011;63741;42.624;26.276;2023-12-04T06:09:02;6.80;;;3.95;;
74957;SDS011;63741;42.624;26.276;2023-12-04T06:11:31;14.45;;;9.13;;
74957;SDS011;63741;42.624;26.276;2023-12-04T06:13:58;3.95;;;2.58;;
74957;SDS011;63741;42.624;26.276;2023-12-04T06:16:25;4.10;;;2.90;;
74957;SDS011;63741;42.624;26.276;2023-12-04T06:18:52;6.78;;;4.13;;
74957;SDS011;63741;42.624;26.276;2023-12-04T06:21:19;6.20;;;3.60;;
74957;SDS011;63741;42.624;26.276;2023-12-04T06:23:46;6.68;;;3.40;;
74957;SDS011;63741;42.624;26.276;2023-12-04T06:26:13;7.15;;;3.50;;
74957;SDS011;63741;42.624;26.276;2023-12-04T06:28:40;4.30;;;2.60;;
74957;SDS011;63741;42.624;26.276;2023-12-04T06:31:08;3.67;;;2.00;;
74957;SDS011;63741;42.624;26.276;2023-12-04T06:33:36;5.40;;;3.50;;
74957;SDS011;63741;42.624;26.276;2023-12-04T06:36:04;4.85;;;2.95;;
74957;SDS011;63741;42.624;26.276;2023-12-04T06:38:33;4.68;;;3.05;;
74957;SDS011;63741;42.624;26.276;2023-12-04T06:41:06;6.20;;;3.50;;
74957;SDS011;63741;42.624;26.276;2023-12-04T06:43:34;6.82;;;3.97;;
74957;SDS011;63741;42.624;26.276;2023-12-04T06:46:02;9.77;;;5.50;;
74957;SDS011;63741;42.624;26.276;2023-12-04T06:48:29;31.05;;;11.73;;
74957;SDS011;63741;42.624;26.276;2023-12-04T06:50:57;7.68;;;4.22;;
74957;SDS011;63741;42.624;26.276;2023-12-04T06:53:24;6.95;;;4.50;;
74957;SDS011;63741;42.624;26.276;2023-12-04T06:55:51;7.22;;;4.20;;
74957;SDS011;63741;42.624;26.276;2023-12-04T06:58:17;14.32;;;8.02;;
74957;SDS011;63741;42.624;26.276;2023-12-04T07:00:44;9.05;;;4.70;;
74957;SDS011;63741;42.624;26.276;2023-12-04T07:03:12;9.57;;;5.22;;
74957;SDS011;63741;42.624;26.276;2023-12-04T07:05:39;9.43;;;6.05;;
74957;SDS011;63741;42.624;26.276;2023-12-04T07:08:06;4.47;;;2.67;;
74957;SDS011;63741;42.624;26.276;2023-12-04T07:10:33;5.90;;;3.53;;
74957;SDS011;63741;42.624;26.276;2023-12-04T07:13:01;7.03;;;3.90;;
74957;SDS011;63741;42.624;26.276;2023-12-04T07:15:28;4.80;;;3.10;;
74957;SDS011;63741;42.624;26.276;2023-12-04T07:17:55;4.70;;;3.22;;
74957;SDS011;63741;42.624;26.276;2023-12-04T07:20:23;4.80;;;2.75;;
74957;SDS011;63741;42.624;26.276;2023-12-04T07:22:51;4.55;;;2.83;;
74957;SDS011;63741;42.624;26.276;2023-12-04T07:25:18;5.25;;;2.92;;
74957;SDS011;63741;42.624;26.276;2023-12-04T07:27:45;4.50;;;3.25;;
74957;SDS011;63741;42.624;26.276;2023-12-04T07:30:13;6.68;;;3.08;;
74957;SDS011;63741;42.624;26.276;2023-12-04T07:32:44;4.55;;;2.60;;
74957;SDS011;63741;42.624;26.276;2023-12-04T07:35:12;3.72;;;2.53;;
74957;SDS011;63741;42.624;26.276;2023-12-04T07:37:39;4.25;;;2.67;;
74957;SDS011;63741;42.624;26.276;2023-12-04T07:40:06;5.60;;;3.47;;
74957;SDS011;63741;42.624;26.276;2023-12-04T07:42:35;6.15;;;3.50;;
74957;SDS011;63741;42.624;26.276;2023-12-04T07:45:02;6.63;;;3.78;;
74957;SDS011;63741;42.624;26.276;2023-12-04T07:47:30;7.00;;;4.50;;
74957;SDS011;63741;42.624;26.276;2023-12-04T07:49:58;5.93;;;3.30;;
74957;SDS011;63741;42.624;26.276;2023-12-04T07:52:26;13.75;;;7.57;;
74957;SDS011;63741;42.624;26.276;2023-12-04T07:54:54;23.33;;;11.40;;
74957;SDS011;63741;42.624;26.276;2023-12-04T07:57:22;14.95;;;7.72;;
74957;SDS011;63741;42.624;26.276;2023-12-04T07:59:49;15.10;;;7.57;;
74957;SDS011;63741;42.624;26.276;2023-12-04T08:02:18;5.88;;;4.10;;
74957;SDS011;63741;42.624;26.276;2023-12-04T08:04:45;11.52;;;5.05;;
74957;SDS011;63741;42.624;26.276;2023-12-04T08:07:12;10.60;;;5.40;;
74957;SDS011;63741;42.624;26.276;2023-12-04T08:09:39;8.10;;;6.05;;
74957;SDS011;63741;42.624;26.276;2023-12-04T08:12:06;6.82;;;5.38;;
74957;SDS011;63741;42.624;26.276;2023-12-04T08:14:33;5.60;;;3.45;;
74957;SDS011;63741;42.624;26.276;2023-12-04T08:17:00;7.28;;;3.30;;
74957;SDS011;63741;42.624;26.276;2023-12-04T08:19:27;3.97;;;2.45;;
74957;SDS011;63741;42.624;26.276;2023-12-04T08:21:54;6.95;;;3.28;;
74957;SDS011;63741;42.624;26.276;2023-12-04T08:24:23;5.30;;;3.22;;
74957;SDS011;63741;42.624;26.276;2023-12-04T08:26:50;4.75;;;3.00;;
74957;SDS011;63741;42.624;26.276;2023-12-04T08:29:17;4.40;;;2.90;;
74957;SDS011;63741;42.624;26.276;2023-12-04T08:31:44;5.10;;;3.20;;
74957;SDS011;63741;42.624;26.276;2023-12-04T08:34:11;4.72;;;3.28;;
74957;SDS011;63741;42.624;26.276;2023-12-04T08:36:38;5.30;;;3.38;;
74957;SDS011;63741;42.624;26.276;2023-12-04T08:39:12;5.15;;;3.10;;
74957;SDS011;63741;42.624;26.276;2023-12-04T08:41:39;6.35;;;3.30;;
74957;SDS011;63741;42.624;26.276;2023-12-04T08:44:16;6.28;;;3.42;;
74957;SDS011;63741;42.624;26.276;2023-12-04T08:46:44;4.40;;;3.00;;
74957;SDS011;63741;42.624;26.276;2023-12-04T08:49:11;4.55;;;2.88;;
74957;SDS011;63741;42.624;26.276;2023-12-04T08:51:38;7.30;;;4.38;;
74957;SDS011;63741;42.624;26.276;2023-12-04T08:54:06;5.10;;;3.10;;
74957;SDS011;63741;42.624;26.276;2023-12-04T08:56:36;8.13;;;4.35;;
74957;SDS011;63741;42.624;26.276;2023-12-04T08:59:03;5.80;;;3.60;;
74957;SDS011;63741;42.624;26.276;2023-12-04T09:01:30;5.82;;;3.50;;
74957;SDS011;63741;42.624;26.276;2023-12-04T09:03:58;4.78;;;3.35;;
74957;SDS011;63741;42.624;26.276;2023-12-04T09:06:26;6.70;;;4.03;;
74957;SDS011;63741;42.624;26.276;2023-12-04T09:09:13;7.07;;;4.30;;
74957;SDS011;63741;42.624;26.276;2023-12-04T09:11:43;6.10;;;4.00;;
74957;SDS011;63741;42.624;26.276;2023-12-04T09:14:10;6.32;;;4.22;;
74957;SDS011;63741;42.624;26.276;2023-12-04T09:16:37;6.93;;;4.50;;
74957;SDS011;63741;42.624;26.276;2023-12-04T09:19:04;6.60;;;4.43;;
74957;SDS011;63741;42.624;26.276;2023-12-04T09:21:32;8.23;;;4.60;;
74957;SDS011;63741;42.624;26.276;2023-12-04T09:23:59;7.03;;;4.97;;
74957;SDS011;63741;42.624;26.276;2023-12-04T09:26:26;8.57;;;4.95;;
74957;SDS011;63741;42.624;26.276;2023-12-04T09:28:53;7.90;;;4.80;;
74957;SDS011;63741;42.624;26.276;2023-12-04T09:31:20;7.75;;;5.13;;
74957;SDS011;63741;42.624;26.276;2023-12-04T09:33:47;7.63;;;4.95;;
74957;SDS011;63741;42.624;26.276;2023-12-04T09:36:15;8.48;;;5.18;;
74957;SDS011;63741;42.624;26.276;2023-12-04T09:38:42;8.93;;;5.65;;
74957;SDS011;63741;42.624;26.276;2023-12-04T09:41:10;9.13;;;5.35;;
74957;SDS011;63741;42.624;26.276;2023-12-04T09:43:39;9.38;;;5.18;;
74957;SDS011;63741;42.624;26.276;2023-12-04T09:46:08;7.43;;;4.85;;
74957;SDS011;63741;42.624;26.276;2023-12-04T09:48:37;8.93;;;4.88;;
74957;SDS011;63741;42.624;26.276;2023-12-04T09:51:06;8.55;;;5.20;;
74957;SDS011;63741;42.624;26.276;2023-12-04T09:53:33;7.57;;;5.10;;
74957;SDS011;63741;42.624;26.276;2023-12-04T09:56:05;7.10;;;4.63;;
74957;SDS011;63741;42.624;26.276;2023-12-04T09:58:34;6.13;;;3.97;;
74957;SDS011;63741;42.624;26.276;2023-12-04T10:01:07;8.32;;;4.35;;
74957;SDS011;63741;42.624;26.276;2023-12-04T10:03:37;8.48;;;5.30;;
74957;SDS011;63741;42.624;26.276;2023-12-04T10:06:06;9.00;;;5.03;;
74957;SDS011;63741;42.624;26.276;2023-12-04T10:08:35;9.68;;;5.18;;
74957;SDS011;63741;42.624;26.276;2023-12-04T10:11:02;8.15;;;4.95;;
74957;SDS011;63741;42.624;26.276;2023-12-04T10:13:29;5.68;;;4.07;;
74957;SDS011;63741;42.624;26.276;2023-12-04T10:16:37;6.70;;;4.38;;
74957;SDS011;63741;42.624;26.276;2023-12-04T10:21:48;7.30;;;4.43;;
74957;SDS011;63741;42.624;26.276;2023-12-04T10:27:09;6.63;;;4.30;;
74957;SDS011;63741;42.624;26.276;2023-12-04T10:29:45;7.93;;;4.93;;
74957;SDS011;63741;42.624;26.276;2023-12-04T10:32:20;7.47;;;5.00;;
74957;SDS011;63741;42.624;26.276;2023-12-04T10:34:48;6.60;;;4.55;;
74957;SDS011;63741;42.624;26.276;2023-12-04T10:37:15;7.07;;;4.53;;
74957;SDS011;63741;42.624;26.276;2023-12-04T10:39:50;8.00;;;4.85;;
74957;SDS011;63741;42.624;26.276;2023-12-04T10:42:27;6.57;;;4.60;;
74957;SDS011;63741;42.624;26.276;2023-12-04T10:44:56;6.35;;;4.57;;
74957;SDS011;63741;42.624;26.276;2023-12-04T10:47:24;8.02;;;5.03;;
74957;SDS011;63741;42.624;26.276;2023-12-04T10:49:52;6.78;;;4.55;;
74957;SDS011;63741;42.624;26.276;2023-12-04T10:52:19;7.18;;;4.70;;
74957;SDS011;63741;42.624;26.276;2023-12-04T10:54:48;8.50;;;4.82;;
74957;SDS011;63741;42.624;26.276;2023-12-04T10:57:25;8.77;;;4.47;;
74957;SDS011;63741;42.624;26.276;2023-12-04T10:59:56;7.18;;;4.00;;
74957;SDS011;63741;42.624;26.276;2023-12-04T11:02:25;7.90;;;4.40;;
74957;SDS011;63741;42.624;26.276;2023-12-04T11:04:58;7.28;;;5.03;;
74957;SDS011;63741;42.624;26.276;2023-12-04T11:07:44;6.25;;;4.25;;
74957;SDS011;63741;42.624;26.276;2023-12-04T11:10:37;5.97;;;4.22;;
74957;SDS011;63741;42.624;26.276;2023-12-04T11:13:25;6.35;;;4.40;;
74957;SDS011;63741;42.624;26.276;2023-12-04T11:16:02;7.40;;;4.32;;
74957;SDS011;63741;42.624;26.276;2023-12-04T11:18:36;6.75;;;4.20;;
74957;SDS011;63741;42.624;26.276;2023-12-04T11:21:09;7.38;;;4.85;;
74957;SDS011;63741;42.624;26.276;2023-12-04T11:23:38;5.93;;;4.07;;
74957;SDS011;63741;42.624;26.276;2023-12-04T11:26:07;5.97;;;4.03;;
74957;SDS011;63741;42.624;26.276;2023-12-04T11:28:35;6.60;;;4.25;;
74957;SDS011;63741;42.624;26.276;2023-12-04T11:31:05;8.00;;;5.35;;
74957;SDS011;63741;42.624;26.276;2023-12-04T11:33:36;6.38;;;4.47;;
74957;SDS011;63741;42.624;26.276;2023-12-04T11:36:08;7.30;;;4.95;;
74957;SDS011;63741;42.624;26.276;2023-12-04T11:38:43;5.65;;;4.05;;
74957;SDS011;63741;42.624;26.276;2023-12-04T11:43:52;6.15;;;4.43;;
74957;SDS011;63741;42.624;26.276;2023-12-04T11:46:23;8.65;;;5.30;;
74957;SDS011;63741;42.624;26.276;2023-12-04T11:48:55;8.30;;;5.25;;
74957;SDS011;63741;42.624;26.276;2023-12-04T11:54:14;9.25;;;5.35;;
74957;SDS011;63741;42.624;26.276;2023-12-04T11:59:51;6.60;;;4.13;;
74957;SDS011;63741;42.624;26.276;2023-12-04T12:02:19;6.75;;;4.70;;
74957;SDS011;63741;42.624;26.276;2023-12-04T12:04:46;7.40;;;4.30;;
74957;SDS011;63741;42.624;26.276;2023-12-04T12:07:14;8.05;;;5.05;;
74957;SDS011;63741;42.624;26.276;2023-12-04T12:09:41;7.10;;;4.63;;
74957;SDS011;63741;42.624;26.276;2023-12-04T12:12:08;7.55;;;4.50;;
74957;SDS011;63741;42.624;26.276;2023-12-04T12:14:36;7.75;;;4.30;;
74957;SDS011;63741;42.624;26.276;2023-12-04T12:17:03;7.90;;;4.30;;
74957;SDS011;63741;42.624;26.276;2023-12-04T12:19:30;6.50;;;4.15;;
74957;SDS011;63741;42.624;26.276;2023-12-04T12:21:57;7.07;;;4.45;;
74957;SDS011;63741;42.624;26.276;2023-12-04T12:24:24;7.15;;;4.65;;
74957;SDS011;63741;42.624;26.276;2023-12-04T12:26:53;6.90;;;4.47;;
74957;SDS011;63741;42.624;26.276;2023-12-04T12:29:22;8.73;;;5.80;;
74957;SDS011;63741;42.624;26.276;2023-12-04T12:31:49;6.43;;;4.40;;
74957;SDS011;63741;42.624;26.276;2023-12-04T12:34:17;7.60;;;4.82;;
74957;SDS011;63741;42.624;26.276;2023-12-04T12:36:44;7.88;;;4.68;;
74957;SDS011;63741;42.624;26.276;2023-12-04T12:39:11;8.00;;;4.65;;
74957;SDS011;63741;42.624;26.276;2023-12-04T12:41:39;6.05;;;4.70;;
74957;SDS011;63741;42.624;26.276;2023-12-04T12:44:06;6.63;;;4.65;;
74957;SDS011;63741;42.624;26.276;2023-12-04T12:46:33;6.15;;;4.25;;
74957;SDS011;63741;42.624;26.276;2023-12-04T12:49:00;5.50;;;4.18;;
74957;SDS011;63741;42.624;26.276;2023-12-04T12:51:27;6.95;;;4.80;;
74957;SDS011;63741;42.624;26.276;2023-12-04T12:53:56;6.28;;;4.45;;
74957;SDS011;63741;42.624;26.276;2023-12-04T12:56:24;6.22;;;4.57;;
74957;SDS011;63741;42.624;26.276;2023-12-04T12:58:55;7.13;;;4.57;;
74957;SDS011;63741;42.624;26.276;2023-12-04T13:01:23;8.30;;;4.75;;
74957;SDS011;63741;42.624;26.276;2023-12-04T13:03:52;6.55;;;4.57;;
74957;SDS011;63741;42.624;26.276;2023-12-04T13:06:19;17.23;;;9.68;;
74957;SDS011;63741;42.624;26.276;2023-12-04T13:08:46;7.88;;;4.70;;
74957;SDS011;63741;42.624;26.276;2023-12-04T13:11:13;8.70;;;5.22;;
74957;SDS011;63741;42.624;26.276;2023-12-04T13:13:41;9.10;;;6.35;;
74957;SDS011;63741;42.624;26.276;2023-12-04T13:16:08;7.55;;;5.00;;
74957;SDS011;63741;42.624;26.276;2023-12-04T13:18:35;6.95;;;4.85;;
74957;SDS011;63741;42.624;26.276;2023-12-04T13:21:04;6.97;;;5.05;;
74957;SDS011;63741;42.624;26.276;2023-12-04T13:23:31;7.18;;;4.40;;
74957;SDS011;63741;42.624;26.276;2023-12-04T13:25:58;6.25;;;4.10;;
74957;SDS011;63741;42.624;26.276;2023-12-04T13:28:25;7.15;;;4.85;;
74957;SDS011;63741;42.624;26.276;2023-12-04T13:31:02;8.70;;;6.25;;
74957;SDS011;63741;42.624;26.276;2023-12-04T13:33:30;8.02;;;5.32;;
74957;SDS011;63741;42.624;26.276;2023-12-04T13:35:58;18.50;;;10.13;;
74957;SDS011;63741;42.624;26.276;2023-12-04T13:38:26;7.78;;;5.65;;
74957;SDS011;63741;42.624;26.276;2023-12-04T13:41:02;11.45;;;6.57;;
74957;SDS011;63741;42.624;26.276;2023-12-04T13:43:56;7.10;;;5.18;;
74957;SDS011;63741;42.624;26.276;2023-12-04T13:46:26;7.53;;;5.45;;
74957;SDS011;63741;42.624;26.276;2023-12-04T13:48:53;7.95;;;4.65;;
74957;SDS011;63741;42.624;26.276;2023-12-04T13:51:21;10.80;;;5.97;;
74957;SDS011;63741;42.624;26.276;2023-12-04T13:53:49;6.43;;;4.50;;
74957;SDS011;63741;42.624;26.276;2023-12-04T13:56:25;6.57;;;4.43;;
74957;SDS011;63741;42.624;26.276;2023-12-04T13:59:10;7.50;;;4.88;;
74957;SDS011;63741;42.624;26.276;2023-12-04T14:01:45;7.20;;;4.78;;
74957;SDS011;63741;42.624;26.276;2023-12-04T14:04:13;9.77;;;6.25;;
74957;SDS011;63741;42.624;26.276;2023-12-04T14:06:41;7.18;;;4.88;;
74957;SDS011;63741;42.624;26.276;2023-12-04T14:09:09;8.40;;;5.18;;
74957;SDS011;63741;42.624;26.276;2023-12-04T14:11:42;8.07;;;5.30;;
74957;SDS011;63741;42.624;26.276;2023-12-04T14:14:13;7.82;;;5.28;;
74957;SDS011;63741;42.624;26.276;2023-12-04T14:16:40;8.25;;;4.85;;
74957;SDS011;63741;42.624;26.276;2023-12-04T14:19:08;8.13;;;5.72;;
74957;SDS011;63741;42.624;26.276;2023-12-04T14:21:36;7.35;;;4.95;;
74957;SDS011;63741;42.624;26.276;2023-12-04T14:24:03;6.80;;;4.90;;
74957;SDS011;63741;42.624;26.276;2023-12-04T14:26:30;6.25;;;4.65;;
74957;SDS011;63741;42.624;26.276;2023-12-04T14:28:57;8.20;;;4.80;;
74957;SDS011;63741;42.624;26.276;2023-12-04T14:31:27;22.15;;;11.75;;
74957;SDS011;63741;42.624;26.276;2023-12-04T14:33:55;10.00;;;7.35;;
74957;SDS011;63741;42.624;26.276;2023-12-04T14:36:22;7.43;;;5.43;;
74957;SDS011;63741;42.624;26.276;2023-12-04T14:38:49;7.38;;;4.85;;
74957;SDS011;63741;42.624;26.276;2023-12-04T14:41:16;11.63;;;5.15;;
74957;SDS011;63741;42.624;26.276;2023-12-04T14:43:43;7.43;;;5.10;;
74957;SDS011;63741;42.624;26.276;2023-12-04T14:46:11;8.05;;;4.90;;
74957;SDS011;63741;42.624;26.276;2023-12-04T14:48:38;8.25;;;5.68;;
74957;SDS011;63741;42.624;26.276;2023-12-04T14:51:09;7.10;;;5.15;;
74957;SDS011;63741;42.624;26.276;2023-12-04T14:53:38;9.02;;;6.22;;
74957;SDS011;63741;42.624;26.276;2023-12-04T14:56:08;19.00;;;9.30;;
74957;SDS011;63741;42.624;26.276;2023-12-04T14:58:39;10.48;;;6.60;;